createdAt,value
2023-04-04T00:02:19.280Z,4.60
2023-04-04T00:04:46.216Z,4.56
2023-04-04T00:07:12.785Z,4.53
2023-04-04T00:09:39.335Z,4.49
2023-04-04T00:12:06.084Z,4.45
2023-04-04T00:14:32.767Z,4.42
2023-04-04T00:16:59.423Z,4.39
2023-04-04T00:19:26.114Z,4.35
2023-04-04T00:21:52.674Z,4.31
2023-04-04T00:24:19.240Z,4.29
2023-04-04T00:26:45.858Z,4.26
2023-04-04T00:29:12.482Z,4.22
2023-04-04T00:31:39.132Z,4.18
2023-04-04T00:34:15.381Z,4.15
2023-04-04T00:36:41.956Z,4.11
2023-04-04T00:39:08.670Z,4.08
2023-04-04T00:41:35.831Z,4.05
2023-04-04T00:44:02.392Z,4.01
2023-04-04T00:46:29.648Z,3.99
2023-04-04T00:48:56.380Z,3.95
2023-04-04T00:51:22.974Z,3.92
2023-04-04T00:53:51.033Z,3.90
2023-04-04T00:56:18.233Z,3.88
2023-04-04T00:58:45.102Z,3.85
2023-04-04T01:01:11.961Z,3.82
2023-04-04T01:03:39.880Z,3.81
2023-04-04T01:06:07.302Z,3.79
2023-04-04T01:08:34.598Z,3.78
2023-04-04T01:11:01.188Z,3.75
2023-04-04T01:13:27.789Z,3.72
2023-04-04T01:15:54.422Z,3.69
2023-04-04T01:18:21.985Z,3.67
2023-04-04T01:20:52.965Z,3.64
2023-04-04T01:23:21.669Z,3.63
2023-04-04T01:25:48.535Z,3.60
2023-04-04T01:28:15.144Z,3.56
2023-04-04T01:30:42.723Z,3.54
2023-04-04T01:33:11.002Z,3.50
2023-04-04T01:35:44.185Z,3.48
2023-04-04T01:38:19.148Z,3.46
2023-04-04T01:40:48.739Z,3.43
2023-04-04T01:43:15.498Z,3.40
2023-04-04T01:45:42.332Z,3.37
2023-04-04T01:48:11.209Z,3.34
2023-04-04T01:50:37.981Z,3.30
2023-04-04T01:53:04.714Z,3.30
2023-04-04T01:55:31.312Z,3.26
2023-04-04T01:57:57.887Z,3.23
2023-04-04T02:00:24.523Z,3.19
2023-04-04T02:02:51.747Z,3.18
2023-04-04T02:05:18.445Z,3.17
2023-04-04T02:07:49.737Z,3.14
2023-04-04T02:10:16.706Z,3.11
2023-04-04T02:12:43.392Z,3.10
2023-04-04T02:15:10.178Z,3.08
2023-04-04T02:17:36.863Z,3.06
2023-04-04T02:20:04.164Z,3.04
2023-04-04T02:22:30.730Z,3.02
2023-04-04T02:24:58.022Z,3.00
2023-04-04T02:27:24.616Z,2.99
2023-04-04T02:29:51.201Z,2.96
2023-04-04T02:32:18.626Z,2.94
2023-04-04T02:34:45.185Z,2.91
2023-04-04T02:37:11.797Z,2.89
2023-04-04T02:39:38.414Z,2.86
2023-04-04T02:42:05.093Z,2.84
2023-04-04T02:44:31.679Z,2.82
2023-04-04T02:46:58.381Z,2.80
2023-04-04T02:49:25.010Z,2.78
2023-04-04T02:51:51.620Z,2.76
2023-04-04T02:54:18.196Z,2.73
2023-04-04T02:56:44.787Z,2.71
2023-04-04T02:59:11.503Z,2.70
2023-04-04T03:01:38.185Z,2.67
2023-04-04T03:04:05.428Z,2.65
2023-04-04T03:06:33.336Z,2.62
2023-04-04T03:09:00.060Z,2.60
2023-04-04T03:11:26.640Z,2.57
2023-04-04T03:13:55.129Z,2.55
2023-04-04T03:16:22.588Z,2.53
2023-04-04T03:18:49.599Z,2.53
2023-04-04T03:21:16.783Z,2.50
2023-04-04T03:23:43.403Z,2.49
2023-04-04T03:26:10.008Z,2.46
2023-04-04T03:28:36.726Z,2.46
2023-04-04T03:31:04.281Z,2.45
2023-04-04T03:33:30.894Z,2.45
2023-04-04T03:35:57.455Z,2.43
2023-04-04T03:38:24.151Z,2.42
2023-04-04T03:40:50.731Z,2.42
2023-04-04T03:43:17.592Z,2.40
2023-04-04T03:45:44.278Z,2.39
2023-04-04T03:48:11.416Z,2.38
2023-04-04T03:50:38.246Z,2.38
2023-04-04T03:53:04.940Z,2.37
2023-04-04T03:55:31.605Z,2.36
2023-04-04T03:57:59.095Z,2.35
2023-04-04T04:00:26.379Z,2.35
2023-04-04T04:02:53.056Z,2.33
2023-04-04T04:05:19.710Z,2.32
2023-04-04T04:07:48.564Z,2.30
2023-04-04T04:10:15.091Z,2.29
2023-04-04T04:12:41.978Z,2.28
2023-04-04T04:15:08.818Z,2.26
2023-04-04T04:17:38.694Z,2.24
2023-04-04T04:20:06.061Z,2.22
2023-04-04T04:22:32.543Z,2.23
2023-04-04T04:24:59.007Z,2.38
2023-04-04T04:27:25.511Z,2.68
2023-04-04T04:29:52.065Z,3.10
2023-04-04T04:32:19.254Z,3.57
2023-04-04T04:34:45.783Z,4.06
2023-04-04T04:37:13.039Z,4.53
2023-04-04T04:39:39.597Z,4.97
2023-04-04T04:42:06.120Z,5.37
2023-04-04T04:44:32.618Z,5.76
2023-04-04T04:46:59.206Z,6.04
2023-04-04T04:49:25.812Z,6.26
2023-04-04T04:51:52.267Z,6.40
2023-04-04T04:54:18.806Z,6.46
2023-04-04T04:56:45.266Z,6.48
2023-04-04T04:59:12.942Z,6.42
2023-04-04T05:01:39.441Z,6.35
2023-04-04T05:04:05.917Z,6.24
2023-04-04T05:06:32.451Z,6.11
2023-04-04T05:08:59.052Z,5.98
2023-04-04T05:11:26.357Z,5.83
2023-04-04T05:13:52.952Z,5.70
2023-04-04T05:16:20.662Z,5.55
2023-04-04T05:18:47.374Z,5.41
2023-04-04T05:21:14.411Z,5.28
2023-04-04T05:23:40.998Z,5.14
2023-04-04T05:26:07.654Z,5.01
2023-04-04T05:28:34.948Z,4.90
2023-04-04T05:31:01.501Z,4.79
2023-04-04T05:33:28.041Z,4.70
2023-04-04T05:35:56.844Z,4.60
2023-04-04T05:38:23.457Z,4.52
2023-04-04T05:40:50.028Z,4.44
2023-04-04T05:43:16.608Z,4.37
2023-04-04T05:45:43.160Z,4.30
2023-04-04T05:48:09.742Z,4.26
2023-04-04T05:50:36.395Z,4.21
2023-04-04T05:53:03.243Z,4.17
2023-04-04T05:55:29.828Z,4.13
2023-04-04T05:57:57.555Z,4.11
2023-04-04T06:00:24.620Z,4.10
2023-04-04T06:02:53.097Z,4.06
2023-04-04T06:05:19.743Z,4.03
2023-04-04T06:07:46.381Z,4.03
2023-04-04T06:10:12.928Z,4.01
2023-04-04T06:12:39.526Z,4.00
2023-04-04T06:15:06.688Z,3.99
2023-04-04T06:17:33.335Z,4.01
2023-04-04T06:19:59.929Z,4.02
2023-04-04T06:22:26.668Z,4.03
2023-04-04T06:24:53.200Z,4.05
2023-04-04T06:27:19.750Z,4.06
2023-04-04T06:29:47.002Z,4.10
2023-04-04T06:32:14.207Z,4.12
2023-04-04T06:34:40.901Z,4.14
2023-04-04T06:37:07.611Z,4.16
2023-04-04T06:39:34.581Z,4.20
2023-04-04T06:42:01.697Z,4.24
2023-04-04T06:44:29.666Z,4.27
2023-04-04T06:46:56.376Z,4.31
2023-04-04T06:49:23.013Z,4.40
2023-04-04T06:51:51.025Z,4.44
2023-04-04T06:54:17.631Z,4.51
2023-04-04T06:56:44.144Z,4.59
2023-04-04T06:59:12.395Z,4.66
2023-04-04T07:01:39.005Z,4.72
2023-04-04T07:04:05.606Z,4.79
2023-04-04T07:06:32.265Z,4.84
2023-04-04T07:08:58.937Z,4.91
2023-04-04T07:11:25.516Z,4.98
2023-04-04T07:13:52.202Z,5.03
2023-04-04T07:16:18.875Z,5.11
2023-04-04T07:18:45.445Z,5.18
2023-04-04T07:21:12.070Z,5.26
2023-04-04T07:23:38.602Z,5.34
2023-04-04T07:26:05.197Z,5.42
2023-04-04T07:28:32.005Z,5.52
2023-04-04T07:31:04.284Z,5.61
2023-04-04T07:33:31.315Z,5.71
2023-04-04T07:35:58.137Z,5.81
2023-04-04T07:38:24.687Z,5.90
2023-04-04T07:40:51.339Z,6.01
2023-04-04T07:43:17.921Z,6.12
2023-04-04T07:45:44.694Z,6.25
2023-04-04T07:48:11.367Z,6.37
2023-04-04T07:50:38.325Z,6.48
2023-04-04T07:53:05.117Z,6.61
2023-04-04T07:55:31.720Z,6.72
2023-04-04T07:57:58.744Z,6.84
2023-04-04T08:00:26.681Z,6.99
2023-04-04T08:03:02.934Z,7.11
2023-04-04T08:05:29.647Z,7.24
2023-04-04T08:07:56.178Z,7.36
2023-04-04T08:10:22.800Z,7.50
2023-04-04T08:12:49.653Z,7.62
2023-04-04T08:15:16.537Z,7.78
2023-04-04T08:17:46.218Z,7.90
2023-04-04T08:20:12.892Z,8.06
2023-04-04T08:22:41.130Z,8.22
2023-04-04T08:25:07.910Z,8.36
2023-04-04T08:27:34.578Z,8.51
2023-04-04T08:30:03.783Z,8.64
2023-04-04T08:32:30.495Z,8.80
2023-04-04T08:34:57.096Z,8.94
2023-04-04T08:37:23.639Z,9.09
2023-04-04T08:39:50.281Z,9.23
2023-04-04T08:42:20.692Z,9.37
2023-04-04T08:44:48.112Z,9.49
2023-04-04T08:47:16.743Z,9.58
2023-04-04T08:49:43.963Z,9.65
2023-04-04T08:52:12.265Z,9.72
2023-04-04T08:54:40.030Z,9.75
2023-04-04T08:57:06.791Z,9.76
2023-04-04T08:59:33.522Z,9.76
2023-04-04T09:02:04.767Z,9.75
2023-04-04T09:04:32.072Z,9.76
2023-04-04T09:06:59.153Z,9.80
2023-04-04T09:09:26.143Z,9.83
2023-04-04T09:11:53.012Z,9.85
2023-04-04T09:14:20.538Z,9.89
2023-04-04T09:16:47.349Z,9.91
2023-04-04T09:19:13.949Z,9.96
2023-04-04T09:21:40.616Z,10.02
2023-04-04T09:24:07.381Z,10.10
2023-04-04T09:26:47.290Z,10.16
2023-04-04T09:29:14.319Z,10.20
2023-04-04T09:31:41.866Z,10.24
2023-04-04T09:34:08.476Z,10.29
2023-04-04T09:36:35.242Z,10.34
2023-04-04T09:39:03.333Z,10.44
2023-04-04T09:41:30.190Z,10.50
2023-04-04T09:43:58.029Z,10.58
2023-04-04T09:46:25.500Z,10.66
2023-04-04T09:48:52.295Z,10.75
2023-04-04T09:51:18.852Z,10.83
2023-04-04T09:53:48.084Z,10.94
2023-04-04T09:56:14.719Z,11.11
2023-04-04T09:58:52.409Z,11.28
2023-04-04T10:01:24.049Z,11.50
2023-04-04T10:03:57.267Z,11.72
2023-04-04T10:06:23.880Z,11.98
2023-04-04T10:08:50.694Z,12.23
2023-04-04T10:11:31.267Z,12.48
2023-04-04T10:13:58.394Z,12.76
2023-04-04T10:16:25.926Z,13.01
2023-04-04T13:19:28.263Z,16.87
2023-04-04T13:21:54.875Z,16.83
2023-04-04T13:24:22.137Z,16.81
2023-04-04T13:26:48.688Z,16.80
2023-04-04T13:29:15.203Z,16.83
2023-04-04T13:31:41.915Z,16.90
2023-04-04T13:34:08.455Z,16.99
2023-04-04T13:36:35.012Z,17.11
2023-04-04T13:39:01.776Z,17.21
2023-04-04T13:41:28.353Z,17.31
2023-04-04T13:43:56.703Z,17.38
2023-04-04T13:46:23.521Z,17.43
2023-04-04T13:48:50.113Z,17.47
2023-04-04T13:51:16.643Z,17.50
2023-04-04T13:53:45.228Z,17.55
2023-04-04T13:58:42.249Z,17.64
2023-04-04T14:01:09.459Z,17.66
2023-04-04T14:03:36.876Z,17.67
2023-04-04T14:06:09.962Z,17.69
2023-04-04T14:08:37.545Z,17.67
2023-04-04T14:11:04.269Z,17.63
2023-04-04T14:13:31.123Z,17.58
2023-04-04T14:15:57.698Z,17.56
2023-04-04T14:18:24.241Z,17.56
2023-04-04T14:20:50.970Z,17.56
2023-04-04T14:23:17.604Z,17.56
2023-04-04T14:25:44.166Z,17.58
2023-04-04T14:28:10.706Z,17.59
2023-04-04T14:30:37.260Z,17.58
2023-04-04T14:33:03.935Z,17.58
2023-04-04T14:35:30.622Z,17.59
2023-04-04T14:37:57.228Z,17.56
2023-04-04T14:40:23.787Z,17.54
2023-04-04T14:42:50.696Z,17.49
2023-04-04T14:45:17.802Z,17.45
2023-04-04T14:47:44.595Z,17.42
2023-04-04T14:50:11.144Z,17.38
2023-04-04T14:52:37.700Z,17.35
2023-04-04T14:55:04.516Z,17.30
2023-04-04T14:57:32.241Z,17.25
2023-04-04T15:00:02.351Z,17.22
2023-04-04T15:02:29.020Z,17.21
2023-04-04T15:04:55.590Z,17.20
2023-04-04T15:07:24.398Z,17.19
2023-04-04T15:09:50.998Z,17.16
2023-04-04T15:12:17.507Z,17.12
2023-04-04T15:14:44.063Z,17.11
2023-04-04T15:17:10.998Z,17.09
2023-04-04T15:19:37.499Z,17.07
2023-04-04T15:22:04.719Z,17.04
2023-04-04T15:24:31.239Z,17.02
2023-04-04T15:26:57.875Z,17.00
2023-04-04T15:29:24.477Z,16.99
2023-04-04T15:31:51.135Z,16.99
2023-04-04T15:34:17.813Z,17.00
2023-04-04T15:36:44.608Z,17.02
2023-04-04T15:39:14.360Z,17.02
2023-04-04T15:41:41.191Z,17.04
2023-04-04T15:44:07.857Z,17.05
2023-04-04T15:46:34.389Z,17.07
2023-04-04T15:49:01.331Z,17.10
2023-04-04T15:51:29.042Z,17.13
2023-04-04T15:53:56.173Z,17.13
2023-04-04T15:56:22.867Z,17.12
2023-04-04T15:58:49.676Z,17.11
2023-04-04T16:01:16.519Z,17.07
2023-04-04T16:03:43.296Z,17.01
2023-04-04T16:06:13.212Z,16.94
2023-04-04T16:08:40.857Z,16.85
2023-04-04T16:11:07.810Z,16.79
2023-04-04T16:13:34.554Z,16.70
2023-04-04T16:16:01.136Z,16.60
2023-04-04T16:18:27.758Z,16.49
2023-04-04T16:20:54.290Z,16.36
2023-04-04T16:23:21.477Z,16.23
2023-04-04T16:25:48.094Z,16.12
2023-04-04T16:28:14.643Z,15.99
2023-04-04T16:30:41.576Z,15.86
2023-04-04T16:33:08.422Z,15.74
2023-04-04T16:35:35.292Z,15.63
2023-04-04T16:38:01.854Z,15.51
2023-04-04T16:40:28.421Z,15.39
2023-04-04T16:42:54.966Z,15.26
2023-04-04T16:45:21.835Z,15.14
2023-04-04T16:47:48.390Z,15.02
2023-04-04T16:50:14.942Z,14.91
2023-04-04T16:52:41.475Z,14.80
2023-04-04T16:55:08.609Z,14.70
2023-04-04T16:57:35.319Z,14.60
2023-04-04T17:00:02.026Z,14.52
2023-04-04T17:02:28.573Z,14.42
2023-04-04T17:04:55.108Z,14.35
2023-04-04T17:07:21.686Z,14.26
2023-04-04T17:09:48.847Z,14.18
2023-04-04T17:12:15.549Z,14.12
2023-04-04T17:14:42.183Z,14.04
2023-04-04T17:17:09.011Z,13.96
2023-04-04T17:19:37.349Z,13.90
2023-04-04T17:22:03.988Z,13.83
2023-04-04T17:24:30.740Z,13.76
2023-04-04T17:26:58.437Z,13.68
2023-04-04T17:29:27.200Z,13.63
2023-04-04T17:31:54.827Z,13.58
2023-04-04T17:34:21.586Z,13.53
2023-04-04T17:36:48.538Z,13.47
2023-04-04T17:39:15.447Z,13.44
2023-04-04T17:41:42.146Z,13.42
2023-04-04T17:44:09.353Z,13.48
2023-04-04T17:46:36.451Z,13.60
2023-04-04T17:49:03.024Z,13.77
2023-04-04T17:51:29.595Z,13.99
2023-04-04T17:53:56.473Z,14.22
2023-04-04T17:56:23.220Z,14.43
2023-04-04T17:58:51.926Z,14.62
2023-04-04T18:01:20.275Z,14.76
2023-04-04T18:03:47.046Z,14.86
2023-04-04T18:06:13.820Z,14.92
2023-04-04T18:08:41.752Z,14.93
2023-04-04T18:11:08.624Z,14.92
2023-04-04T18:13:35.165Z,14.89
2023-04-04T18:16:02.951Z,14.83
2023-04-04T18:18:29.738Z,14.78
2023-04-04T18:20:57.014Z,14.70
2023-04-04T18:23:24.524Z,14.62
2023-04-04T18:25:51.432Z,14.52
2023-04-04T18:28:18.445Z,14.44
2023-04-04T18:30:45.050Z,14.36
2023-04-04T18:33:11.985Z,14.25
2023-04-04T18:35:38.576Z,14.15
2023-04-04T18:38:05.112Z,14.01
2023-04-04T18:40:31.693Z,13.89
2023-04-04T18:42:58.257Z,13.76
2023-04-04T18:45:33.665Z,13.62
2023-04-04T18:48:06.370Z,13.46
2023-04-04T18:50:33.119Z,13.33
2023-04-04T18:52:59.689Z,13.20
2023-04-04T18:55:26.234Z,13.07
2023-04-04T18:57:52.790Z,12.96
2023-04-04T19:00:19.358Z,12.86
2023-04-04T19:02:46.654Z,12.76
2023-04-04T19:05:13.494Z,12.67
2023-04-04T19:07:42.014Z,12.60
2023-04-04T19:10:09.090Z,12.52
2023-04-04T19:12:35.669Z,12.45
2023-04-04T19:15:03.886Z,12.39
2023-04-04T19:17:30.725Z,12.30
2023-04-04T19:19:57.729Z,12.21
2023-04-04T19:22:24.351Z,12.15
2023-04-04T19:24:50.962Z,12.08
2023-04-04T19:27:17.680Z,12.01
2023-04-04T19:29:44.364Z,11.96
2023-04-04T19:32:13.985Z,11.91
2023-04-04T19:34:42.749Z,11.85
2023-04-04T19:37:13.015Z,11.80
2023-04-04T19:39:41.851Z,11.75
2023-04-04T19:42:09.048Z,11.71
2023-04-04T19:44:40.614Z,11.67
2023-04-04T19:47:07.686Z,11.61
2023-04-04T19:49:35.582Z,11.56
2023-04-04T19:52:04.542Z,11.49
2023-04-04T19:54:37.527Z,11.43
2023-04-04T19:57:07.062Z,11.36
2023-04-04T19:59:48.736Z,11.30
2023-04-04T20:02:38.828Z,11.20
2023-04-04T20:05:24.711Z,11.11
2023-04-04T20:07:51.307Z,11.03
2023-04-04T20:10:35.714Z,10.95
2023-04-04T20:13:02.272Z,10.89
2023-04-04T20:15:49.847Z,10.83
2023-04-04T20:18:20.577Z,10.77
2023-04-04T20:20:59.469Z,10.71
2023-04-04T20:23:27.199Z,10.63
2023-04-04T20:25:54.539Z,10.57
2023-04-04T20:28:25.705Z,10.51
2023-04-04T20:30:52.608Z,10.44
2023-04-04T20:33:28.339Z,10.37
2023-04-04T20:35:55.133Z,10.32
2023-04-04T20:38:21.753Z,10.26
2023-04-04T20:40:48.327Z,10.21
2023-04-04T20:43:14.894Z,10.17
2023-04-04T20:45:44.984Z,10.11
2023-04-04T20:48:31.775Z,10.06
2023-04-04T20:50:58.246Z,9.99
2023-04-04T20:53:27.500Z,9.94
2023-04-04T20:55:54.236Z,9.88
2023-04-04T20:58:26.605Z,9.83
2023-04-04T21:00:53.130Z,9.78
2023-04-04T21:03:26.024Z,9.75
2023-04-04T21:05:53.475Z,9.72
2023-04-04T21:08:19.952Z,9.67
2023-04-04T21:10:49.787Z,9.62
2023-04-04T21:13:16.480Z,9.59
2023-04-04T21:15:42.999Z,9.56
2023-04-04T21:18:10.461Z,9.52
2023-04-04T21:20:46.253Z,9.49
2023-04-04T21:23:25.045Z,9.44
2023-04-04T21:25:51.969Z,9.40
2023-04-04T21:28:18.411Z,9.36
2023-04-04T21:30:46.240Z,9.32
2023-04-04T21:33:17.703Z,9.31
2023-04-04T21:35:51.117Z,9.25
2023-04-04T21:38:33.782Z,9.21
2023-04-04T21:41:01.312Z,9.18
2023-04-04T21:43:28.507Z,9.13
2023-04-04T21:45:56.512Z,9.09
2023-04-04T21:48:23.680Z,9.06
2023-04-04T21:50:50.707Z,8.99
2023-04-04T21:53:22.053Z,8.94
2023-04-04T21:55:48.575Z,8.90
2023-04-04T21:58:15.109Z,8.84
2023-04-04T22:00:42.039Z,8.77
2023-04-04T22:03:09.268Z,8.71
2023-04-04T22:05:39.030Z,8.65
2023-04-04T22:08:06.220Z,8.61
2023-04-04T22:10:33.178Z,8.54
2023-04-04T22:12:59.712Z,8.49
2023-04-04T22:15:32.281Z,8.42
2023-04-04T22:18:06.215Z,8.37
2023-04-04T22:20:33.087Z,8.31
2023-04-04T22:22:59.664Z,8.25
2023-04-04T22:25:27.366Z,8.19
2023-04-04T22:27:54.040Z,8.12
2023-04-04T22:30:21.841Z,8.08
2023-04-04T22:32:48.502Z,8.02
2023-04-04T22:35:15.086Z,7.97
2023-04-04T22:37:41.603Z,7.92
2023-04-04T22:40:13.644Z,7.86
2023-04-04T22:42:40.165Z,7.81
2023-04-04T22:45:06.942Z,7.75
2023-04-04T22:47:33.445Z,7.70
2023-04-04T22:50:04.846Z,7.64
2023-04-04T22:52:32.068Z,7.59
2023-04-04T22:54:59.733Z,7.53
2023-04-04T22:57:26.337Z,7.48
2023-04-04T22:59:52.855Z,7.43
2023-04-04T23:02:19.384Z,7.36
2023-04-04T23:04:46.413Z,7.30
2023-04-04T23:07:13.038Z,7.25
2023-04-04T23:09:39.549Z,7.17
2023-04-04T23:12:06.615Z,7.11
2023-04-04T23:14:38.854Z,7.04
2023-04-04T23:17:06.287Z,6.97
2023-04-04T23:19:32.803Z,6.91
2023-04-04T23:21:59.755Z,6.84
2023-04-04T23:24:26.568Z,6.79
2023-04-04T23:26:53.062Z,6.74
2023-04-04T23:29:19.617Z,6.66
2023-04-04T23:31:46.265Z,6.61
2023-04-04T23:34:12.863Z,6.56
2023-04-04T23:36:39.354Z,6.49
2023-04-04T23:39:05.862Z,6.45
2023-04-04T23:41:32.436Z,6.40
2023-04-04T23:43:58.912Z,6.34
2023-04-04T23:46:26.313Z,6.29
2023-04-04T23:48:52.893Z,6.25
2023-04-04T23:51:19.502Z,6.18
2023-04-04T23:53:46.128Z,6.11
2023-04-04T23:56:12.609Z,6.06
2023-04-04T23:58:39.224Z,6.02
